Time;durP1;ratioP1;P1;durP2;ratioP2;P2;SDS_P1;SDS_P2;PMS_P1;PMS_P2;Temp;Humidity;BMP_temperature;BMP_pressure;BME280_temperature;BME280_humidity;BME280_pressure;Samples;Min_cycle;Max_cycle;Signal;HPM_P1;HPM_P2
2022/01/08 00:00:43;;;;;;;2.90;2.15;;;;;;;-5.07;61.42;99477.91;5095127;28;20074;-80
2022/01/08 00:03:10;;;;;;;3.53;2.08;;;;;;;-5.02;61.70;99514.72;5077220;28;20510;-80
2022/01/08 00:05:37;;;;;;;2.72;1.60;;;;;;;-5.05;61.60;99504.38;5095926;28;20456;-80
2022/01/08 00:08:05;;;;;;;2.90;2.13;;;;;;;-5.00;61.66;99500.41;5095661;28;20060;-80
2022/01/08 00:10:33;;;;;;;4.88;2.03;;;;;;;-5.02;61.77;99519.81;5096378;28;20051;-81
2022/01/08 00:13:05;;;;;;;3.67;2.20;;;;;;;-4.99;61.62;99514.00;5096126;28;20052;-80
2022/01/08 00:15:34;;;;;;;2.85;2.10;;;;;;;-4.93;61.71;99529.66;5096114;28;20083;-81
2022/01/08 00:18:01;;;;;;;4.10;2.50;;;;;;;-4.96;61.87;99538.03;5095976;28;20155;-81
2022/01/08 00:20:29;;;;;;;2.60;1.83;;;;;;;-4.95;61.81;99531.25;5095794;28;20520;-81
2022/01/08 00:22:56;;;;;;;3.30;2.13;;;;;;;-4.95;61.86;99542.34;5094589;28;20497;-79
2022/01/08 00:25:23;;;;;;;3.75;2.03;;;;;;;-4.91;62.12;99548.47;5094318;28;20509;-81
2022/01/08 00:27:50;;;;;;;4.07;2.13;;;;;;;-4.85;62.21;99555.63;5104192;28;20052;-79
2022/01/08 00:30:17;;;;;;;3.92;1.75;;;;;;;-4.80;62.47;99554.22;5119413;28;20032;-79
2022/01/08 00:32:44;;;;;;;3.08;1.90;;;;;;;-4.86;62.13;99546.19;5119136;28;20119;-78
2022/01/08 00:35:11;;;;;;;4.07;1.90;;;;;;;-4.80;62.35;99561.84;5118790;28;20043;-80
2022/01/08 00:37:39;;;;;;;4.07;2.00;;;;;;;-4.77;62.14;99560.38;5119212;28;20074;-78
2022/01/08 00:40:10;;;;;;;7.05;2.63;;;;;;;-4.74;62.33;99563.09;5101879;28;20050;-78
2022/01/08 00:42:38;;;;;;;4.63;2.38;;;;;;;-4.68;62.66;99569.38;5119180;28;20052;-80
2022/01/08 00:45:06;;;;;;;3.95;2.17;;;;;;;-4.67;62.29;99563.47;5119127;28;20023;-79
2022/01/08 00:47:33;;;;;;;3.53;2.50;;;;;;;-4.82;61.80;99560.88;5096150;28;20062;-78
2022/01/08 00:50:00;;;;;;;3.20;2.10;;;;;;;-4.85;62.06;99579.41;5114114;28;20036;-79
2022/01/08 00:52:28;;;;;;;3.88;2.42;;;;;;;-4.98;62.56;99582.91;5101990;28;20091;-80
2022/01/08 00:54:55;;;;;;;2.95;2.00;;;;;;;-4.88;62.61;99598.72;5118932;28;20040;-79
2022/01/08 00:57:22;;;;;;;3.78;2.05;;;;;;;-4.81;62.75;99604.31;5118985;28;20039;-82
2022/01/08 00:59:49;;;;;;;4.35;2.55;;;;;;;-4.78;62.68;99611.25;5118842;28;20040;-80
2022/01/08 01:02:16;;;;;;;3.70;2.25;;;;;;;-4.86;62.93;99594.63;5118330;28;20062;-79
2022/01/08 01:04:43;;;;;;;3.22;2.35;;;;;;;-4.86;63.31;99594.63;5111120;28;20509;-80
2022/01/08 01:07:10;;;;;;;2.90;2.42;;;;;;;-4.86;63.03;99598.06;5093952;28;20059;-79
2022/01/08 01:09:37;;;;;;;4.10;2.22;;;;;;;-4.94;62.92;99617.97;5108224;28;20058;-77
2022/01/08 01:12:04;;;;;;;4.53;2.67;;;;;;;-4.87;63.29;99618.34;5098109;28;20055;-78
2022/01/08 01:14:31;;;;;;;2.50;2.30;;;;;;;-4.90;63.19;99618.16;5092655;28;20052;-79
2022/01/08 01:16:58;;;;;;;4.65;2.30;;;;;;;-4.85;63.16;99629.50;5093662;28;20089;-79
2022/01/08 01:19:25;;;;;;;4.50;2.38;;;;;;;-4.94;62.94;99615.44;5075008;28;20433;-79
2022/01/08 01:21:54;;;;;;;4.07;2.13;;;;;;;-4.84;63.01;99641.44;5092895;28;20056;-79
2022/01/08 01:24:24;;;;;;;3.42;1.98;;;;;;;-4.91;62.83;99652.94;5094014;28;20056;-80
2022/01/08 01:48:42;;;;;;;5.63;2.40;;;;;;;-5.38;61.60;99683.97;5011158;28;20046;-80
2022/01/08 01:51:17;;;;;;;3.13;2.25;;;;;;;-5.35;61.10;99700.34;5076252;28;20083;-80
2022/01/08 01:53:44;;;;;;;3.85;2.30;;;;;;;-5.40;61.20;99689.00;5092987;28;20143;-80
2022/01/08 01:56:12;;;;;;;2.72;2.15;;;;;;;-5.32;61.40;99696.22;5092993;28;20052;-80
2022/01/08 01:58:39;;;;;;;6.13;2.38;;;;;;;-5.31;61.11;99711.59;5093610;28;20101;-80
2022/01/08 02:01:06;;;;;;;2.90;2.03;;;;;;;-5.30;60.96;99721.00;5099632;28;20558;-80
2022/01/08 02:03:34;;;;;;;4.88;2.42;;;;;;;-5.33;61.21;99710.63;5104099;28;20048;-79
2022/01/08 02:06:01;;;;;;;3.55;2.22;;;;;;;-5.31;61.09;99716.69;5092589;28;20420;-79
2022/01/08 02:08:29;;;;;;;5.50;2.67;;;;;;;-5.45;60.71;99690.34;5093063;28;20101;-80
2022/01/08 02:10:57;;;;;;;3.35;2.20;;;;;;;-5.28;60.87;99718.56;5092839;28;20072;-80
2022/01/08 02:13:25;;;;;;;3.47;2.25;;;;;;;-5.26;60.70;99717.88;5093172;28;20066;-80
2022/01/08 02:15:54;;;;;;;2.95;2.10;;;;;;;-5.23;60.56;99729.91;5075012;28;20051;-79
2022/01/08 02:18:27;;;;;;;3.55;2.10;;;;;;;-5.28;60.73;99723.66;5092705;28;20139;-80
2022/01/08 02:20:56;;;;;;;2.83;1.92;;;;;;;-5.27;60.75;99730.50;5092691;28;20060;-79
2022/01/08 02:23:23;;;;;;;2.63;2.10;;;;;;;-5.19;60.36;99734.41;5093041;28;20048;-79
2022/01/08 02:25:50;;;;;;;2.50;2.15;;;;;;;-5.22;60.78;99731.69;5093780;28;20051;-80
2022/01/08 02:28:17;;;;;;;3.60;2.05;;;;;;;-5.20;60.55;99730.13;5096142;28;20051;-79
2022/01/08 02:30:45;;;;;;;4.60;2.47;;;;;;;-5.11;60.66;99752.75;5096281;28;20058;-80
2022/01/08 02:33:11;;;;;;;2.90;2.17;;;;;;;-5.09;60.65;99746.09;5096194;28;20097;-79
2022/01/08 02:35:38;;;;;;;3.97;2.33;;;;;;;-5.05;60.38;99748.03;5096217;28;20048;-80
2022/01/08 02:38:05;;;;;;;6.30;3.10;;;;;;;-5.12;59.76;99735.69;5096074;28;20056;-80
2022/01/08 02:40:32;;;;;;;8.35;3.97;;;;;;;-5.11;59.89;99752.75;5096753;28;20066;-80
2022/01/08 02:43:02;;;;;;;12.70;5.55;;;;;;;-5.20;60.24;99730.13;5096417;28;20056;-79
2022/01/08 02:45:30;;;;;;;29.95;10.70;;;;;;;-5.01;60.06;99758.50;5096762;28;20059;-79
2022/01/08 02:47:57;;;;;;;32.90;13.05;;;;;;;-4.95;59.94;99779.28;5098244;28;20048;-79
2022/01/08 02:50:25;;;;;;;28.48;9.05;;;;;;;-5.00;59.61;99783.19;5096987;28;20052;-79
2022/01/08 02:52:52;;;;;;;23.23;7.82;;;;;;;-5.12;60.03;99768.78;5096719;28;20115;-80
2022/01/08 02:55:20;;;;;;;19.73;6.82;;;;;;;-5.00;59.43;99793.38;5077911;28;20428;-79
2022/01/08 02:57:47;;;;;;;27.52;10.15;;;;;;;-5.00;59.33;99801.03;5095928;28;20562;-79
2022/01/08 03:00:18;;;;;;;13.65;5.05;;;;;;;-4.96;60.03;99795.34;5096519;28;20056;-79
2022/01/08 03:02:50;;;;;;;20.50;7.00;;;;;;;-4.87;59.58;99800.16;5096289;28;20056;-79
2022/01/08 03:05:17;;;;;;;32.55;9.70;;;;;;;-4.88;59.74;99803.50;5095645;28;20048;-79
2022/01/08 03:07:46;;;;;;;15.80;5.25;;;;;;;-4.87;59.70;99810.34;5095670;28;20048;-80
2022/01/08 03:10:16;;;;;;;8.80;3.83;;;;;;;-4.90;59.54;99817.81;5094876;28;20060;-78
2022/01/08 03:12:44;;;;;;;7.03;3.38;;;;;;;-4.98;59.80;99819.84;5095350;28;20056;-80
2022/01/08 03:15:16;;;;;;;13.48;5.25;;;;;;;-4.98;59.93;99812.19;5095383;28;20094;-79
2022/01/08 03:17:44;;;;;;;28.50;9.48;;;;;;;-4.94;59.46;99829.44;5095285;28;20101;-79
2022/01/08 03:20:14;;;;;;;16.10;6.00;;;;;;;-4.94;59.74;99837.09;5095027;28;20082;-79
2022/01/08 03:22:43;;;;;;;21.97;7.07;;;;;;;-4.98;60.00;99839.34;5094887;28;20056;-79
2022/01/08 03:25:11;;;;;;;17.75;5.15;;;;;;;-4.89;60.03;99849.25;5095478;28;20055;-79
2022/01/08 03:27:41;;;;;;;26.88;7.22;;;;;;;-4.85;59.78;99836.81;5094948;28;20425;-80
2022/01/08 03:30:10;;;;;;;39.05;9.32;;;;;;;-4.82;59.66;99848.84;5095080;28;20086;-80
2022/01/08 03:32:37;;;;;;;40.17;9.50;;;;;;;-4.85;59.37;99857.19;5095101;28;20086;-79
2022/01/08 03:35:04;;;;;;;15.43;3.47;;;;;;;-4.87;59.45;99858.75;5094960;28;20493;-80
2022/01/08 03:37:31;;;;;;;26.20;5.82;;;;;;;-4.89;59.20;99857.78;5094375;28;20048;-79
2022/01/08 03:39:58;;;;;;;46.20;11.07;;;;;;;-4.92;59.20;99855.03;5095054;28;20502;-77
2022/01/08 03:42:25;;;;;;;20.65;6.07;;;;;;;-5.06;59.50;99828.66;5094765;28;20200;-79
2022/01/08 03:44:52;;;;;;;28.90;7.10;;;;;;;-4.98;59.65;99854.63;5095234;28;20144;-78
2022/01/08 03:49:56;;;;;;;52.67;14.45;;;;;;;-4.80;59.34;99866.00;5095161;28;20448;-79
2022/01/08 03:52:24;;;;;;;31.13;9.43;;;;;;;-4.81;59.40;99878.66;5095062;28;20056;-78
2022/01/08 03:54:51;;;;;;;29.42;7.72;;;;;;;-4.83;59.78;99865.81;5095003;28;20071;-80
2022/01/08 03:57:18;;;;;;;17.00;4.20;;;;;;;-4.63;59.72;99872.19;5094270;28;20417;-79
2022/01/08 03:59:45;;;;;;;4.82;2.95;;;;;;;-4.55;59.69;99880.34;5094672;28;20048;-80
2022/01/08 04:02:12;;;;;;;10.27;2.90;;;;;;;-4.47;59.60;99878.25;5094654;28;20055;-80
2022/01/08 04:04:39;;;;;;;5.28;2.53;;;;;;;-4.41;59.42;99874.44;5094713;28;20052;-80
2022/01/08 04:07:06;;;;;;;8.45;3.17;;;;;;;-4.46;59.39;99868.16;5077098;28;20056;-80
2022/01/08 04:09:33;;;;;;;9.02;3.28;;;;;;;-4.44;59.58;99879.34;5097234;28;20106;-80
2022/01/08 04:12:01;;;;;;;19.08;4.85;;;;;;;-4.37;59.50;99886.56;5103601;28;20098;-80
2022/01/08 04:14:36;;;;;;;3.53;2.30;;;;;;;-4.40;59.46;99880.41;5106789;28;20071;-80
2022/01/08 04:17:04;;;;;;;4.90;2.67;;;;;;;-4.38;59.95;99894.16;5106170;28;20464;-80
2022/01/08 04:19:31;;;;;;;4.00;2.70;;;;;;;-4.37;59.67;99885.69;5099330;28;20146;-80
2022/01/08 04:22:09;;;;;;;3.47;2.28;;;;;;;-4.45;59.67;99886.88;5094321;28;20564;-80
2022/01/08 04:24:37;;;;;;;4.60;3.17;;;;;;;-4.44;59.98;99883.56;5078221;28;20060;-79
2022/01/08 04:27:04;;;;;;;4.05;2.40;;;;;;;-4.52;60.09;99875.41;5095145;28;20063;-80
2022/01/08 04:29:32;;;;;;;4.43;2.55;;;;;;;-4.37;60.12;99901.00;5094075;28;20051;-80
2022/01/08 04:31:59;;;;;;;3.65;2.53;;;;;;;-4.35;60.15;99910.50;5113792;28;20060;-81
2022/01/08 04:34:27;;;;;;;4.45;2.35;;;;;;;-4.48;60.33;99887.56;5108260;28;20052;-79
2022/01/08 04:36:54;;;;;;;4.28;2.30;;;;;;;-4.39;60.55;99923.88;5075534;28;20055;-78
2022/01/08 04:39:21;;;;;;;2.95;2.13;;;;;;;-4.41;60.39;99917.78;5093612;28;20058;-80
2022/01/08 04:41:48;;;;;;;5.03;2.33;;;;;;;-4.43;60.89;99921.91;5103692;28;20058;-80
2022/01/08 04:44:15;;;;;;;5.05;2.30;;;;;;;-4.39;60.68;99911.13;5118508;28;20048;-81
2022/01/08 04:46:42;;;;;;;3.22;2.22;;;;;;;-4.35;60.95;99922.38;5124951;28;20060;-79
2022/01/08 04:49:09;;;;;;;4.75;2.83;;;;;;;-4.51;60.75;99887.38;5095884;28;20063;-80
2022/01/08 04:51:36;;;;;;;6.43;2.47;;;;;;;-4.41;60.99;99914.34;5113918;28;20051;-79
2022/01/08 04:54:03;;;;;;;3.92;2.10;;;;;;;-4.38;61.02;99937.50;5113998;28;20097;-80
2022/01/08 04:56:30;;;;;;;3.13;2.17;;;;;;;-4.48;61.46;99923.28;5113900;28;20100;-80
2022/01/08 04:58:57;;;;;;;2.60;2.30;;;;;;;-4.33;61.60;99941.22;5113824;28;20471;-79
2022/01/08 05:01:24;;;;;;;4.68;2.47;;;;;;;-4.44;61.65;99915.03;5113491;28;20063;-80
2022/01/08 05:03:51;;;;;;;3.35;2.40;;;;;;;-4.30;61.43;99937.97;5113808;28;20058;-80
2022/01/08 05:06:18;;;;;;;2.58;2.05;;;;;;;-4.25;61.65;99949.38;5113378;28;20051;-80
2022/01/08 05:08:46;;;;;;;5.18;2.38;;;;;;;-4.34;61.56;99958.19;5113628;28;20056;-80
2022/01/08 05:11:12;;;;;;;4.80;2.53;;;;;;;-4.51;61.98;99943.50;5113481;28;20055;-79
2022/01/08 05:13:39;;;;;;;5.03;2.53;;;;;;;-4.42;62.05;99969.56;5095344;28;20051;-80
2022/01/08 05:16:06;;;;;;;4.22;2.90;;;;;;;-4.39;61.81;99972.34;5113293;28;20059;-80
2022/01/08 05:18:34;;;;;;;6.53;3.20;;;;;;;-4.42;61.96;99967.03;5113874;28;20138;-79
2022/01/08 05:21:13;;;;;;;4.05;2.47;;;;;;;-4.44;61.87;99967.72;5095041;28;20112;-79
2022/01/08 05:23:40;;;;;;;7.25;3.22;;;;;;;-4.42;61.60;99976.34;5113544;28;20052;-80
2022/01/08 05:26:07;;;;;;;6.72;3.42;;;;;;;-4.44;61.62;99999.19;5113234;28;20056;-80
2022/01/08 05:28:34;;;;;;;7.25;2.60;;;;;;;-4.41;61.54;99989.22;5113370;28;20054;-79
2022/01/08 05:31:02;;;;;;;8.13;2.50;;;;;;;-4.36;61.45;99984.41;5113222;28;20052;-80
2022/01/08 05:33:29;;;;;;;5.25;2.35;;;;;;;-4.40;61.30;99980.75;5112903;28;20094;-81
2022/01/08 05:35:56;;;;;;;6.85;2.55;;;;;;;-4.33;61.05;99997.34;5095029;28;20146;-80
2022/01/08 05:38:23;;;;;;;4.88;2.13;;;;;;;-4.37;61.33;99990.25;5094981;28;20048;-81
2022/01/08 05:40:50;;;;;;;15.32;4.22;;;;;;;-4.38;61.13;99993.63;5113031;28;20055;-80
2022/01/08 05:43:17;;;;;;;9.25;3.08;;;;;;;-4.30;61.00;100002.66;5112925;28;20135;-80
2022/01/08 05:45:44;;;;;;;7.43;2.42;;;;;;;-4.25;60.82;100010.59;5113078;28;20474;-81
2022/01/08 05:48:12;;;;;;;13.52;4.25;;;;;;;-4.43;60.47;100000.97;5113006;28;20075;-80
2022/01/08 05:50:40;;;;;;;10.25;3.47;;;;;;;-4.40;60.46;100023.22;5112949;28;20052;-85
2022/01/08 05:53:07;;;;;;;9.93;3.40;;;;;;;-4.41;60.54;100027.47;5095147;28;20055;-84
2022/01/08 05:55:34;;;;;;;3.78;1.90;;;;;;;-4.40;60.57;100029.22;5119846;28;20047;-83
2022/01/08 05:58:01;;;;;;;2.67;1.60;;;;;;;-4.41;60.71;100039.31;5105637;28;20047;-83
2022/01/08 06:00:28;;;;;;;2.20;1.20;;;;;;;-4.45;60.73;100033.13;5124988;28;20051;-82
2022/01/08 06:02:55;;;;;;;3.75;1.95;;;;;;;-4.32;60.51;100045.03;5129771;28;20048;-82
2022/01/08 06:05:22;;;;;;;6.15;2.63;;;;;;;-4.27;60.63;100046.19;5135974;28;20048;-83
2022/01/08 06:07:50;;;;;;;5.60;2.28;;;;;;;-4.21;60.54;100050.81;5119162;28;20051;-83
2022/01/08 06:10:18;;;;;;;5.85;2.35;;;;;;;-4.26;60.61;100036.88;5099037;28;20048;-84
2022/01/08 06:12:46;;;;;;;4.47;2.22;;;;;;;-4.27;60.72;100028.34;5099251;28;20527;-83
2022/01/08 06:15:14;;;;;;;2.15;1.88;;;;;;;-4.00;60.34;100066.63;5117308;28;20055;-83
2022/01/08 06:17:41;;;;;;;3.88;1.80;;;;;;;-4.03;60.37;100066.44;5117624;28;20052;-83
2022/01/08 06:20:08;;;;;;;4.22;2.17;;;;;;;-3.94;60.96;100079.78;5099077;28;20484;-84
2022/01/08 06:22:35;;;;;;;3.50;1.90;;;;;;;-4.02;60.94;100076.75;5099476;28;20451;-83
2022/01/08 06:25:03;;;;;;;6.57;2.05;;;;;;;-3.96;61.41;100091.56;5117067;28;20044;-83
2022/01/08 06:27:30;;;;;;;6.35;2.67;;;;;;;-4.07;61.76;100087.44;5117000;28;20059;-84
2022/01/08 06:29:57;;;;;;;3.70;2.30;;;;;;;-4.09;62.03;100069.47;5118175;28;20504;-82
2022/01/08 06:32:24;;;;;;;5.45;2.47;;;;;;;-3.97;62.32;100106.00;5118467;28;20055;-83
2022/01/08 06:34:51;;;;;;;4.72;2.70;;;;;;;-4.03;62.67;100097.94;5118529;28;20051;-82
2022/01/08 06:37:18;;;;;;;5.35;2.60;;;;;;;-3.85;63.01;100127.97;5099104;28;20055;-83
2022/01/08 06:39:44;;;;;;;6.15;2.72;;;;;;;-3.93;62.75;100109.63;5118056;28;20566;-84
2022/01/08 06:42:11;;;;;;;8.65;3.08;;;;;;;-3.83;63.10;100111.09;5104030;28;20047;-80
2022/01/08 06:44:38;;;;;;;5.72;3.13;;;;;;;-3.76;62.86;100138.81;5105285;28;20078;-83
2022/01/08 06:47:06;;;;;;;8.52;2.78;;;;;;;-4.07;62.63;100084.88;5117211;28;20100;-84
2022/01/08 06:49:33;;;;;;;7.00;2.58;;;;;;;-3.90;63.30;100130.25;5117053;28;20104;-84
2022/01/08 06:52:00;;;;;;;5.22;2.78;;;;;;;-3.96;63.42;100107.78;5117925;28;20056;-85
2022/01/08 06:54:27;;;;;;;5.93;2.47;;;;;;;-3.85;63.61;100128.88;5100369;28;20047;-85
2022/01/08 06:56:53;;;;;;;6.45;3.13;;;;;;;-3.79;63.51;100129.25;5091850;28;20221;-83
2022/01/08 06:59:20;;;;;;;8.15;3.00;;;;;;;-3.73;63.41;100131.34;5113268;28;20052;-81
2022/01/08 07:01:48;;;;;;;4.85;2.55;;;;;;;-3.63;63.27;100130.28;5109022;28;20532;-83
2022/01/08 07:04:15;;;;;;;3.55;2.40;;;;;;;-3.54;63.58;100130.84;5102449;28;20082;-82
2022/01/08 07:06:42;;;;;;;5.40;2.92;;;;;;;-3.47;63.41;100133.00;5121085;28;20495;-82
2022/01/08 07:09:09;;;;;;;7.20;2.75;;;;;;;-3.65;63.49;100103.75;5115957;28;20055;-83
2022/01/08 07:11:36;;;;;;;4.13;2.63;;;;;;;-3.36;63.52;100133.66;5113409;28;20048;-83
2022/01/08 07:14:03;;;;;;;4.45;2.83;;;;;;;-3.35;63.33;100138.00;5110016;28;20072;-82
2022/01/08 07:16:31;;;;;;;5.13;2.85;;;;;;;-3.36;63.55;100133.66;5112993;28;20139;-84
2022/01/08 07:19:03;;;;;;;4.30;2.63;;;;;;;-3.30;63.31;100152.81;5103994;28;20047;-82
2022/01/08 07:21:37;;;;;;;5.43;2.85;;;;;;;-3.41;63.54;100148.72;5064300;28;20082;-81
2022/01/08 07:24:05;;;;;;;5.47;2.97;;;;;;;-3.52;63.68;100136.94;5079316;28;20052;-81
2022/01/08 07:26:34;;;;;;;5.93;3.20;;;;;;;-3.46;64.42;100165.44;5096076;28;20048;-79
2022/01/08 07:29:02;;;;;;;8.32;4.38;;;;;;;-3.40;63.96;100162.34;5077390;28;20067;-83
2022/01/08 07:31:29;;;;;;;10.23;4.38;;;;;;;-3.32;64.12;100162.06;5094662;28;20060;-81
2022/01/08 07:33:56;;;;;;;10.75;4.70;;;;;;;-3.31;64.03;100139.97;5093519;28;20052;-81
2022/01/08 07:36:23;;;;;;;10.23;5.78;;;;;;;-3.21;63.94;100151.63;5093806;28;20659;-82
2022/01/08 07:38:50;;;;;;;11.40;5.60;;;;;;;-3.25;64.11;100134.34;5077295;28;20059;-80
2022/01/08 07:41:17;;;;;;;19.40;8.07;;;;;;;-3.06;63.92;100154.25;5101000;28;20522;-82
2022/01/08 07:43:44;;;;;;;11.80;5.90;;;;;;;-2.97;63.64;100148.06;5101210;28;20063;-81
2022/01/08 07:46:11;;;;;;;10.25;5.13;;;;;;;-2.91;63.46;100130.53;5080932;28;20494;-81
2022/01/08 07:48:40;;;;;;;7.50;4.30;;;;;;;-2.75;62.92;100145.16;5111771;28;20572;-81
2022/01/08 07:51:07;;;;;;;8.90;3.88;;;;;;;-2.56;62.40;100161.56;5109352;28;20047;-81
2022/01/08 07:53:35;;;;;;;7.10;3.65;;;;;;;-2.63;62.06;100142.44;5111365;28;20080;-84
2022/01/08 07:56:02;;;;;;;8.82;3.53;;;;;;;-2.48;61.88;100160.38;5102954;28;20048;-81
2022/01/08 07:58:29;;;;;;;7.63;3.05;;;;;;;-2.42;61.81;100173.53;5104465;28;20052;-80
2022/01/08 08:00:57;;;;;;;4.72;2.95;;;;;;;-2.39;61.40;100173.72;5099638;28;20044;-83
2022/01/08 08:03:24;;;;;;;5.35;2.55;;;;;;;-2.40;61.08;100181.31;5091483;28;20054;-79
2022/01/08 08:05:51;;;;;;;2.53;1.88;;;;;;;-2.43;60.55;100189.69;5091540;28;20062;-81
2022/01/08 08:08:20;;;;;;;5.93;2.45;;;;;;;-2.47;60.66;100180.94;5091642;28;20056;-80
2022/01/08 08:10:50;;;;;;;6.05;2.70;;;;;;;-2.42;60.33;100175.22;5074103;28;20062;-78
2022/01/08 08:13:19;;;;;;;7.83;3.00;;;;;;;-2.23;59.95;100190.88;5091186;28;20425;-79
2022/01/08 08:15:48;;;;;;;5.22;2.72;;;;;;;-2.28;59.22;100185.50;5097569;28;20052;-82
2022/01/08 08:18:23;;;;;;;10.93;4.28;;;;;;;-2.43;59.23;100183.66;5092248;28;20052;-80
2022/01/08 08:20:50;;;;;;;10.93;5.00;;;;;;;-2.54;58.75;100177.91;5074855;28;20059;-81
2022/01/08 08:23:17;;;;;;;9.20;3.67;;;;;;;-2.18;58.82;100202.25;5091756;28;20056;-79
2022/01/08 08:25:44;;;;;;;3.05;2.08;;;;;;;-2.15;58.09;100189.66;5092887;28;20054;-81
2022/01/08 08:28:11;;;;;;;11.88;3.80;;;;;;;-2.14;57.95;100209.34;5058566;28;20494;-80
2022/01/08 08:30:38;;;;;;;3.83;2.05;;;;;;;-2.22;57.65;100194.31;5078523;28;20074;-84
2022/01/08 08:33:06;;;;;;;10.55;3.08;;;;;;;-2.17;57.89;100209.16;5093910;28;20048;-85
2022/01/08 08:35:33;;;;;;;9.15;3.20;;;;;;;-2.09;57.50;100207.03;5076956;28;20048;-82
2022/01/08 08:38:01;;;;;;;5.60;2.67;;;;;;;-2.14;57.71;100190.53;5114094;28;20495;-82
2022/01/08 08:40:28;;;;;;;7.53;3.72;;;;;;;-2.01;57.64;100210.06;5094736;28;20136;-82
2022/01/08 08:42:55;;;;;;;4.55;2.35;;;;;;;-2.12;57.70;100207.75;5107078;28;20059;-82
2022/01/08 08:45:23;;;;;;;6.15;2.95;;;;;;;-2.09;57.74;100224.97;5074712;28;20052;-84
2022/01/08 08:47:51;;;;;;;5.68;2.28;;;;;;;-2.04;57.49;100210.78;5090320;28;20097;-82
2022/01/08 08:50:18;;;;;;;5.97;2.22;;;;;;;-2.03;57.66;100211.66;5072935;28;20553;-83
2022/01/08 08:52:46;;;;;;;6.53;2.92;;;;;;;-2.01;57.53;100220.31;5092695;28;20048;-81
2022/01/08 08:55:14;;;;;;;7.53;3.08;;;;;;;-2.04;57.27;100208.22;5058157;28;20071;-82
2022/01/08 08:57:42;;;;;;;9.25;3.80;;;;;;;-1.97;57.51;100212.03;5090341;28;20047;-82
2022/01/08 09:00:10;;;;;;;11.15;5.15;;;;;;;-1.86;56.88;100211.84;5090332;28;20147;-82
2022/01/08 09:02:38;;;;;;;4.75;2.20;;;;;;;-1.84;56.75;100229.00;5091310;28;20108;-83
2022/01/08 09:05:06;;;;;;;2.60;1.80;;;;;;;-2.05;57.05;100237.16;5095005;28;20143;-82
2022/01/08 09:07:34;;;;;;;4.07;1.98;;;;;;;-2.26;57.52;100223.94;5097818;28;20071;-82
2022/01/08 09:10:06;;;;;;;4.32;2.20;;;;;;;-2.72;57.62;100199.00;5106632;28;20147;-82
2022/01/08 09:12:33;;;;;;;3.22;1.50;;;;;;;-2.74;57.55;100236.41;5107293;28;20422;-82
2022/01/08 09:15:00;;;;;;;7.18;3.35;;;;;;;-2.90;57.33;100243.91;5102329;28;20055;-83
2022/01/08 09:17:29;;;;;;;12.43;4.22;;;;;;;-2.89;57.10;100251.66;5090898;28;20055;-83
2022/01/08 09:19:56;;;;;;;26.63;10.07;;;;;;;-2.80;56.93;100247.91;5093600;28;20105;-83
2022/01/08 09:22:23;;;;;;;19.90;8.02;;;;;;;-2.90;56.47;100211.56;5090431;28;20117;-83
2022/01/08 09:24:51;;;;;;;19.83;7.75;;;;;;;-2.61;56.10;100248.28;5071625;28;20110;-81
2022/01/08 09:27:18;;;;;;;39.75;15.40;;;;;;;-2.62;55.99;100220.94;5090091;28;20097;-84
2022/01/08 09:29:45;;;;;;;13.80;5.10;;;;;;;-2.30;55.47;100251.06;5074022;28;20052;-85
2022/01/08 09:32:13;;;;;;;28.75;11.23;;;;;;;-2.24;54.88;100244.53;5091347;28;20052;-82
2022/01/08 09:34:40;;;;;;;26.17;8.23;;;;;;;-2.27;54.99;100251.22;5096034;28;20062;-85
2022/01/08 09:37:08;;;;;;;19.70;8.88;;;;;;;-2.28;55.20;100263.91;5098295;28;20413;-83
2022/01/08 09:39:38;;;;;;;15.15;4.90;;;;;;;-2.37;55.52;100251.44;5095029;28;20147;-82
2022/01/08 09:42:07;;;;;;;32.83;10.43;;;;;;;-2.45;55.48;100260.34;5078003;28;20047;-83
2022/01/08 09:44:37;;;;;;;19.88;7.60;;;;;;;-2.68;56.30;100259.81;5077696;28;20048;-83
2022/01/08 09:47:06;;;;;;;15.40;4.70;;;;;;;-2.57;56.57;100264.72;5102556;28;20418;-83
2022/01/08 09:49:33;;;;;;;11.70;4.28;;;;;;;-2.48;56.13;100267.81;5097216;28;20062;-86
2022/01/08 09:52:03;;;;;;;8.90;2.95;;;;;;;-2.43;56.07;100255.31;5095827;28;20064;-84
2022/01/08 09:54:31;;;;;;;10.00;2.85;;;;;;;-2.26;55.83;100257.22;5091876;28;20063;-82
2022/01/08 09:56:58;;;;;;;11.05;3.78;;;;;;;-2.08;55.47;100265.16;5095043;28;20074;-83
2022/01/08 09:59:28;;;;;;;12.23;4.70;;;;;;;-1.95;54.91;100270.19;5094513;28;20146;-83
2022/01/08 10:01:58;;;;;;;14.80;5.90;;;;;;;-1.94;54.66;100265.97;5095479;28;20110;-82
2022/01/08 10:04:27;;;;;;;17.73;5.50;;;;;;;-1.84;54.92;100268.28;5094674;28;20717;-82
2022/01/08 10:07:20;;;;;;;8.52;3.10;;;;;;;-1.55;54.22;100269.09;5077692;28;20048;-82
2022/01/08 10:10:12;;;;;;;6.35;2.70;;;;;;;-1.38;54.06;100263.25;5094085;28;20060;-83
2022/01/08 10:12:59;;;;;;;3.78;2.00;;;;;;;-1.38;53.91;100276.06;5095154;28;20059;-83
2022/01/08 10:18:32;;;;;;;6.03;2.50;;;;;;;-1.71;54.99;100251.97;5077483;28;20425;-83
2022/01/08 10:21:14;;;;;;;8.30;3.50;;;;;;;-1.87;55.17;100239.94;5096664;28;20070;-85
2022/01/08 10:23:47;;;;;;;4.45;2.60;;;;;;;-1.54;55.44;100292.25;5095278;28;20048;-83
2022/01/08 10:26:17;;;;;;;4.78;2.15;;;;;;;-1.48;55.71;100290.06;5088206;28;20062;-82
2022/01/08 10:28:56;;;;;;;7.25;3.03;;;;;;;-1.54;55.82;100292.25;5116752;28;20055;-82
2022/01/08 10:31:29;;;;;;;8.38;3.45;;;;;;;-1.66;56.17;100288.97;5097412;28;20055;-83
2022/01/08 10:34:02;;;;;;;7.07;3.20;;;;;;;-1.77;57.10;100297.69;5117919;28;20429;-82
2022/01/08 10:36:39;;;;;;;5.85;3.05;;;;;;;-1.85;57.11;100297.22;5115683;28;20661;-83
2022/01/08 10:39:21;;;;;;;7.50;3.03;;;;;;;-1.94;57.58;100281.31;5098245;28;20067;-83
2022/01/08 10:41:51;;;;;;;5.72;2.75;;;;;;;-1.85;57.51;100297.22;5121710;28;20047;-82
2022/01/08 10:44:27;;;;;;;5.70;2.70;;;;;;;-1.74;57.36;100306.47;5117524;28;20047;-83
2022/01/08 10:47:08;;;;;;;6.32;2.85;;;;;;;-1.64;57.62;100307.88;5097961;28;20108;-84
2022/01/08 10:49:44;;;;;;;5.95;3.08;;;;;;;-1.83;57.49;100280.28;5115693;28;20489;-82
2022/01/08 10:52:13;;;;;;;6.60;2.95;;;;;;;-1.80;57.91;100290.72;5097919;28;20463;-84
2022/01/08 10:54:48;;;;;;;6.65;2.90;;;;;;;-1.72;57.85;100298.84;5096605;28;20047;-85
2022/01/08 10:57:14;;;;;;;6.45;2.80;;;;;;;-1.69;58.42;100309.28;5115033;28;20409;-83
2022/01/08 10:59:43;;;;;;;5.72;2.88;;;;;;;-1.96;58.23;100295.72;5115344;28;20504;-84
2022/01/08 11:02:14;;;;;;;5.70;2.88;;;;;;;-1.91;58.46;100325.06;5114458;28;20051;-82
2022/01/08 11:04:52;;;;;;;7.22;2.90;;;;;;;-2.01;58.90;100307.34;5116156;28;20043;-83
2022/01/08 11:07:23;;;;;;;15.18;6.18;;;;;;;-2.09;58.92;100330.84;5098175;28;20051;-84
2022/01/08 11:09:51;;;;;;;;;;;;;;;-2.27;59.06;100322.00;5078826;28;20069;-82
2022/01/08 11:12:23;;;;;;;7.50;3.08;;;;;;;-2.42;59.67;100321.94;5116215;28;20384;-83
2022/01/08 11:17:33;;;;;;;7.20;2.95;;;;;;;-2.54;59.94;100303.25;5113634;28;20055;-82
2022/01/08 11:20:27;;;;;;;6.47;2.72;;;;;;;-2.52;59.99;100335.84;5112419;28;20051;-83
2022/01/08 11:23:37;;;;;;;5.57;2.70;;;;;;;-2.82;60.25;100300.63;5103627;28;20509;-83
2022/01/08 11:26:42;;;;;;;7.35;3.10;;;;;;;-2.52;60.10;100343.53;5113633;28;20044;-83
2022/01/08 11:29:21;;;;;;;7.32;3.20;;;;;;;-2.62;60.18;100338.59;5115325;28;20138;-82
2022/01/08 11:31:55;;;;;;;8.38;3.10;;;;;;;-2.56;60.18;100336.44;5114461;28;20101;-82
2022/01/08 11:34:24;;;;;;;5.43;2.75;;;;;;;-2.65;60.57;100315.38;5093346;28;20079;-83
2022/01/08 11:36:52;;;;;;;9.50;3.60;;;;;;;-2.50;60.61;100346.16;5113369;28;20052;-83
2022/01/08 11:39:26;;;;;;;11.30;4.75;;;;;;;-2.50;60.36;100330.81;5113653;28;20080;-83
2022/01/08 11:41:55;;;;;;;6.38;3.20;;;;;;;-2.45;60.38;100334.56;5114231;28;20047;-82
2022/01/08 11:44:25;;;;;;;7.10;3.22;;;;;;;-2.45;60.21;100333.63;5112341;28;20059;-82
2022/01/08 11:46:52;;;;;;;5.07;2.80;;;;;;;-2.70;60.39;100322.75;5113463;28;20497;-84
2022/01/08 11:49:21;;;;;;;8.88;3.50;;;;;;;-2.72;60.99;100347.34;5094688;28;20047;-83
2022/01/08 11:53:19;;;;;;;5.13;3.10;;;;;;;-2.63;60.74;100344.50;5113300;28;20451;-85
2022/01/08 11:55:34;;;;;;;7.45;3.28;;;;;;;-2.84;60.52;100327.78;5108500;28;20051;-82
2022/01/08 11:58:23;;;;;;;7.72;3.90;;;;;;;-2.72;61.04;100357.56;5117796;28;20059;-83
2022/01/08 12:01:00;;;;;;;6.97;3.78;;;;;;;-2.85;61.33;100367.81;5094572;28;20197;-83
2022/01/08 12:03:36;;;;;;;8.98;4.45;;;;;;;-2.93;61.20;100346.84;5097586;28;20080;-82
2022/01/08 12:06:39;;;;;;;7.75;3.78;;;;;;;-2.75;61.07;100377.84;5096765;28;20097;-83